Главная страница
METAR-TAF:

METAR-TAF

Аэропорты :

Нуакшот, Мавритания

широта: 18-18-36N, долгота: 015-58-11W, высота над уровнем моря: 3 м

Текущие метеонаблюдения

Эта сводка был подготовлена 34 минут назад, в 06:00 UTC
Ветер 13 Узел от северный
Температура 27°C
Влажность 37%
Давление 1012 hPa
Видимость: 8000 м

METAR: GQNO 170600Z 01013KT 8000 NSC 27/11 Q1012 NOSIG

Время: 06:34 (06:34 UTC)

Прогноз

Эта сводка был подготовлена 1 час и 34 минут назад, в 05:00 UTC
Прогноз действительный с 17-го 06 UTC до 18-го 12 UTC
Ветер 14 Узел от северный
Видимость: 8000 м
Вероятность 30% :
временами
С 17-го 10 UTC до 17-го 17 UTC
Видимость: 4000 м
Низовая песчаная метель
изменения
С 18-го 09 UTC до 18-го 11 UTC
Ветер 10 Узел от восточно-северо-восточный

TAF: GQNO 170500Z 1706/1812 36014KT 8000 NSC PROB30 TEMPO 1710/1717 4000 BLSA BECMG 1809/1811 06010KT

Метеонаблюдения и прогнозы для более 4000 аэропортов (сводки METAR и TAF).

Имеющиеся станции представлены на карте желтыми и красными точками.

Чтобы увидеть название станции, наведите на нее мышь.

Затем щелкните, чтобы увидеть метеонаблюдения и метеопрогнозы.

Управление картой: чтобы увеличить масштаб, щелкните зеленые кнопки с черным крестиком; чтобы уменьшить масштаб, щелкните зеленую кнопку с тире; для просмотра соседних карт щелкайте зеленые стрелки.


METAR-TAF: